sensor_id;sensor_type;location;lat;lon;timestamp;temperature;humidity
6118;DHT22;3089;48.202;11.510;2023-07-13T00:00:02;21.50;99.90
6118;DHT22;3089;48.202;11.510;2023-07-13T00:02:36;21.60;99.90
6118;DHT22;3089;48.202;11.510;2023-07-13T00:05:05;21.60;99.90
6118;DHT22;3089;48.202;11.510;2023-07-13T00:07:33;21.50;99.90
6118;DHT22;3089;48.202;11.510;2023-07-13T00:10:02;21.50;99.90
6118;DHT22;3089;48.202;11.510;2023-07-13T00:12:32;21.50;99.90
6118;DHT22;3089;48.202;11.510;2023-07-13T00:15:03;21.50;99.90
6118;DHT22;3089;48.202;11.510;2023-07-13T00:17:31;21.40;99.90
6118;DHT22;3089;48.202;11.510;2023-07-13T00:20:01;21.40;99.90
6118;DHT22;3089;48.202;11.510;2023-07-13T00:22:30;21.40;99.90
6118;DHT22;3089;48.202;11.510;2023-07-13T00:24:58;21.40;99.90
6118;DHT22;3089;48.202;11.510;2023-07-13T00:27:26;21.40;99.90
6118;DHT22;3089;48.202;11.510;2023-07-13T00:29:56;21.40;99.90
6118;DHT22;3089;48.202;11.510;2023-07-13T00:32:24;21.40;99.90
6118;DHT22;3089;48.202;11.510;2023-07-13T00:34:52;21.40;99.90
6118;DHT22;3089;48.202;11.510;2023-07-13T00:37:22;21.40;99.90
6118;DHT22;3089;48.202;11.510;2023-07-13T00:39:50;21.30;99.90
6118;DHT22;3089;48.202;11.510;2023-07-13T00:42:18;21.20;99.90
6118;DHT22;3089;48.202;11.510;2023-07-13T00:45:03;21.30;99.90
6118;DHT22;3089;48.202;11.510;2023-07-13T00:47:31;21.30;99.90
6118;DHT22;3089;48.202;11.510;2023-07-13T00:49:59;21.20;99.90
6118;DHT22;3089;48.202;11.510;2023-07-13T00:52:29;21.20;99.90
6118;DHT22;3089;48.202;11.510;2023-07-13T00:54:57;21.20;99.90
6118;DHT22;3089;48.202;11.510;2023-07-13T00:57:27;21.20;99.90
6118;DHT22;3089;48.202;11.510;2023-07-13T00:59:58;21.20;99.90
6118;DHT22;3089;48.202;11.510;2023-07-13T01:02:28;21.10;99.90
6118;DHT22;3089;48.202;11.510;2023-07-13T01:04:56;21.20;99.90
6118;DHT22;3089;48.202;11.510;2023-07-13T01:07:25;21.10;99.90
6118;DHT22;3089;48.202;11.510;2023-07-13T01:09:54;21.10;99.90
6118;DHT22;3089;48.202;11.510;2023-07-13T01:12:22;21.10;99.90
6118;DHT22;3089;48.202;11.510;2023-07-13T01:14:57;21.10;99.90
6118;DHT22;3089;48.202;11.510;2023-07-13T01:17:27;21.10;99.90
6118;DHT22;3089;48.202;11.510;2023-07-13T01:19:55;21.10;99.90
6118;DHT22;3089;48.202;11.510;2023-07-13T01:22:24;21.00;99.90
6118;DHT22;3089;48.202;11.510;2023-07-13T01:24:54;21.10;99.90
6118;DHT22;3089;48.202;11.510;2023-07-13T01:27:24;21.00;99.90
6118;DHT22;3089;48.202;11.510;2023-07-13T01:29:53;21.00;99.90
6118;DHT22;3089;48.202;11.510;2023-07-13T01:32:28;21.00;99.90
6118;DHT22;3089;48.202;11.510;2023-07-13T01:34:57;20.80;99.90
6118;DHT22;3089;48.202;11.510;2023-07-13T01:37:27;20.70;99.90
6118;DHT22;3089;48.202;11.510;2023-07-13T01:40:02;20.40;99.90
6118;DHT22;3089;48.202;11.510;2023-07-13T01:42:31;20.60;99.90
6118;DHT22;3089;48.202;11.510;2023-07-13T01:44:58;20.50;99.90
6118;DHT22;3089;48.202;11.510;2023-07-13T01:47:26;20.60;99.90
6118;DHT22;3089;48.202;11.510;2023-07-13T01:49:55;20.60;99.90
6118;DHT22;3089;48.202;11.510;2023-07-13T01:52:23;20.70;99.90
6118;DHT22;3089;48.202;11.510;2023-07-13T01:54:52;20.80;99.90
6118;DHT22;3089;48.202;11.510;2023-07-13T01:57:20;20.90;99.90
6118;DHT22;3089;48.202;11.510;2023-07-13T01:59:48;20.80;99.90
6118;DHT22;3089;48.202;11.510;2023-07-13T02:02:16;20.80;99.90
6118;DHT22;3089;48.202;11.510;2023-07-13T02:04:44;20.80;99.90
6118;DHT22;3089;48.202;11.510;2023-07-13T02:07:12;20.70;99.90
6118;DHT22;3089;48.202;11.510;2023-07-13T02:09:41;20.70;99.90
6118;DHT22;3089;48.202;11.510;2023-07-13T02:12:11;20.70;99.90
6118;DHT22;3089;48.202;11.510;2023-07-13T02:14:38;20.70;99.90
6118;DHT22;3089;48.202;11.510;2023-07-13T02:17:06;20.70;99.90
6118;DHT22;3089;48.202;11.510;2023-07-13T02:19:34;20.70;99.90
6118;DHT22;3089;48.202;11.510;2023-07-13T02:22:03;20.70;99.90
6118;DHT22;3089;48.202;11.510;2023-07-13T02:24:31;20.60;99.90
6118;DHT22;3089;48.202;11.510;2023-07-13T02:26:58;20.60;99.90
6118;DHT22;3089;48.202;11.510;2023-07-13T02:29:28;20.60;99.90
6118;DHT22;3089;48.202;11.510;2023-07-13T02:31:55;20.70;99.90
6118;DHT22;3089;48.202;11.510;2023-07-13T02:34:23;20.60;99.90
6118;DHT22;3089;48.202;11.510;2023-07-13T02:36:51;20.60;99.90
6118;DHT22;3089;48.202;11.510;2023-07-13T02:39:19;20.60;99.90
6118;DHT22;3089;48.202;11.510;2023-07-13T02:41:47;20.70;99.90
6118;DHT22;3089;48.202;11.510;2023-07-13T02:44:15;20.70;99.90
6118;DHT22;3089;48.202;11.510;2023-07-13T02:46:44;20.70;99.90
6118;DHT22;3089;48.202;11.510;2023-07-13T02:49:12;20.60;99.90
6118;DHT22;3089;48.202;11.510;2023-07-13T02:51:40;20.60;99.90
6118;DHT22;3089;48.202;11.510;2023-07-13T02:54:09;20.70;99.90
6118;DHT22;3089;48.202;11.510;2023-07-13T02:56:38;20.60;99.90
6118;DHT22;3089;48.202;11.510;2023-07-13T02:59:06;20.50;99.90
6118;DHT22;3089;48.202;11.510;2023-07-13T03:01:34;20.40;99.90
6118;DHT22;3089;48.202;11.510;2023-07-13T03:04:04;20.50;99.90
6118;DHT22;3089;48.202;11.510;2023-07-13T03:06:32;20.50;99.90
6118;DHT22;3089;48.202;11.510;2023-07-13T03:09:00;20.50;99.90
6118;DHT22;3089;48.202;11.510;2023-07-13T03:11:28;20.40;99.90
6118;DHT22;3089;48.202;11.510;2023-07-13T03:13:57;20.40;99.90
6118;DHT22;3089;48.202;11.510;2023-07-13T03:16:25;20.40;99.90
6118;DHT22;3089;48.202;11.510;2023-07-13T03:18:53;20.40;99.90
6118;DHT22;3089;48.202;11.510;2023-07-13T03:21:22;20.40;99.90
6118;DHT22;3089;48.202;11.510;2023-07-13T03:23:50;20.40;99.90
6118;DHT22;3089;48.202;11.510;2023-07-13T03:26:19;20.50;99.90
6118;DHT22;3089;48.202;11.510;2023-07-13T03:28:48;20.40;99.90
6118;DHT22;3089;48.202;11.510;2023-07-13T03:31:17;20.40;99.90
6118;DHT22;3089;48.202;11.510;2023-07-13T03:33:46;20.30;99.90
6118;DHT22;3089;48.202;11.510;2023-07-13T03:36:16;20.30;99.90
6118;DHT22;3089;48.202;11.510;2023-07-13T03:38:48;20.30;99.90
6118;DHT22;3089;48.202;11.510;2023-07-13T03:41:16;20.30;99.90
6118;DHT22;3089;48.202;11.510;2023-07-13T03:43:44;20.30;99.90
6118;DHT22;3089;48.202;11.510;2023-07-13T03:46:14;20.30;99.90
6118;DHT22;3089;48.202;11.510;2023-07-13T03:48:45;20.30;99.90
6118;DHT22;3089;48.202;11.510;2023-07-13T03:51:15;20.30;99.90
6118;DHT22;3089;48.202;11.510;2023-07-13T03:53:45;20.30;99.90
6118;DHT22;3089;48.202;11.510;2023-07-13T03:56:16;20.20;99.90
6118;DHT22;3089;48.202;11.510;2023-07-13T03:58:46;20.20;99.90
6118;DHT22;3089;48.202;11.510;2023-07-13T04:01:15;20.20;99.90
6118;DHT22;3089;48.202;11.510;2023-07-13T04:03:44;20.20;99.90
6118;DHT22;3089;48.202;11.510;2023-07-13T04:06:15;20.10;99.90
6118;DHT22;3089;48.202;11.510;2023-07-13T04:08:49;20.20;99.90
6118;DHT22;3089;48.202;11.510;2023-07-13T04:11:20;20.20;99.90
6118;DHT22;3089;48.202;11.510;2023-07-13T04:13:49;20.20;99.90
6118;DHT22;3089;48.202;11.510;2023-07-13T04:16:18;20.10;99.90
6118;DHT22;3089;48.202;11.510;2023-07-13T04:18:47;20.10;99.90
6118;DHT22;3089;48.202;11.510;2023-07-13T04:21:16;20.10;99.90
6118;DHT22;3089;48.202;11.510;2023-07-13T04:23:44;20.10;99.90
6118;DHT22;3089;48.202;11.510;2023-07-13T04:26:11;20.10;99.90
6118;DHT22;3089;48.202;11.510;2023-07-13T04:28:41;20.10;99.90
6118;DHT22;3089;48.202;11.510;2023-07-13T04:31:09;20.10;99.90
6118;DHT22;3089;48.202;11.510;2023-07-13T04:33:37;20.00;99.90
6118;DHT22;3089;48.202;11.510;2023-07-13T04:36:06;20.00;99.90
6118;DHT22;3089;48.202;11.510;2023-07-13T04:38:36;20.00;99.90
6118;DHT22;3089;48.202;11.510;2023-07-13T04:41:07;20.00;99.90
6118;DHT22;3089;48.202;11.510;2023-07-13T04:43:36;20.00;99.90
6118;DHT22;3089;48.202;11.510;2023-07-13T04:46:07;20.00;99.90
6118;DHT22;3089;48.202;11.510;2023-07-13T04:48:35;19.90;99.90
6118;DHT22;3089;48.202;11.510;2023-07-13T04:51:04;19.90;99.90
6118;DHT22;3089;48.202;11.510;2023-07-13T04:53:32;20.00;99.90
6118;DHT22;3089;48.202;11.510;2023-07-13T04:56:00;19.90;99.90
6118;DHT22;3089;48.202;11.510;2023-07-13T04:58:29;19.90;99.90
6118;DHT22;3089;48.202;11.510;2023-07-13T05:01:00;19.90;99.90
6118;DHT22;3089;48.202;11.510;2023-07-13T05:03:30;20.00;99.90
6118;DHT22;3089;48.202;11.510;2023-07-13T05:06:00;19.90;99.90
6118;DHT22;3089;48.202;11.510;2023-07-13T05:08:28;19.90;99.90
6118;DHT22;3089;48.202;11.510;2023-07-13T05:10:56;20.00;99.90
6118;DHT22;3089;48.202;11.510;2023-07-13T05:13:26;20.00;99.90
6118;DHT22;3089;48.202;11.510;2023-07-13T05:15:57;20.00;99.90
6118;DHT22;3089;48.202;11.510;2023-07-13T05:18:26;19.90;99.90
6118;DHT22;3089;48.202;11.510;2023-07-13T05:21:00;20.00;99.90
6118;DHT22;3089;48.202;11.510;2023-07-13T05:23:29;19.90;99.90
6118;DHT22;3089;48.202;11.510;2023-07-13T05:25:57;19.90;99.90
6118;DHT22;3089;48.202;11.510;2023-07-13T05:28:25;19.90;99.90
6118;DHT22;3089;48.202;11.510;2023-07-13T05:30:54;19.90;99.90
6118;DHT22;3089;48.202;11.510;2023-07-13T05:33:23;19.90;99.90
6118;DHT22;3089;48.202;11.510;2023-07-13T05:35:51;19.80;99.90
6118;DHT22;3089;48.202;11.510;2023-07-13T05:38:21;19.80;99.90
6118;DHT22;3089;48.202;11.510;2023-07-13T05:40:49;19.80;99.90
6118;DHT22;3089;48.202;11.510;2023-07-13T05:43:17;19.80;99.90
6118;DHT22;3089;48.202;11.510;2023-07-13T05:45:45;19.90;99.90
6118;DHT22;3089;48.202;11.510;2023-07-13T05:48:13;19.90;99.90
6118;DHT22;3089;48.202;11.510;2023-07-13T05:50:40;20.10;99.90
6118;DHT22;3089;48.202;11.510;2023-07-13T05:53:08;20.20;99.90
6118;DHT22;3089;48.202;11.510;2023-07-13T05:55:41;20.20;99.90
6118;DHT22;3089;48.202;11.510;2023-07-13T05:58:10;20.30;99.90
6118;DHT22;3089;48.202;11.510;2023-07-13T06:00:38;20.30;99.90
6118;DHT22;3089;48.202;11.510;2023-07-13T06:03:07;20.20;99.90
6118;DHT22;3089;48.202;11.510;2023-07-13T06:05:35;20.20;99.90
6118;DHT22;3089;48.202;11.510;2023-07-13T06:08:04;20.20;99.90
6118;DHT22;3089;48.202;11.510;2023-07-13T06:10:33;20.60;99.90
6118;DHT22;3089;48.202;11.510;2023-07-13T06:13:02;20.60;99.90
6118;DHT22;3089;48.202;11.510;2023-07-13T06:15:30;20.70;99.90
6118;DHT22;3089;48.202;11.510;2023-07-13T06:17:58;21.00;99.90
6118;DHT22;3089;48.202;11.510;2023-07-13T06:20:26;21.00;99.90
6118;DHT22;3089;48.202;11.510;2023-07-13T06:22:55;21.80;99.90
6118;DHT22;3089;48.202;11.510;2023-07-13T06:25:23;22.10;99.90
6118;DHT22;3089;48.202;11.510;2023-07-13T06:27:51;21.70;99.90
6118;DHT22;3089;48.202;11.510;2023-07-13T06:30:20;21.70;99.90
6118;DHT22;3089;48.202;11.510;2023-07-13T06:32:48;22.80;99.90
6118;DHT22;3089;48.202;11.510;2023-07-13T06:35:16;23.30;99.90
6118;DHT22;3089;48.202;11.510;2023-07-13T06:37:44;23.00;99.90
6118;DHT22;3089;48.202;11.510;2023-07-13T06:40:13;21.70;99.90
6118;DHT22;3089;48.202;11.510;2023-07-13T06:42:42;21.20;99.90
6118;DHT22;3089;48.202;11.510;2023-07-13T06:45:10;21.00;99.90
6118;DHT22;3089;48.202;11.510;2023-07-13T06:47:39;20.90;99.90
6118;DHT22;3089;48.202;11.510;2023-07-13T06:50:07;20.70;99.90
6118;DHT22;3089;48.202;11.510;2023-07-13T06:52:35;20.50;99.90
6118;DHT22;3089;48.202;11.510;2023-07-13T06:55:03;20.60;99.90
6118;DHT22;3089;48.202;11.510;2023-07-13T06:57:31;20.70;99.90
6118;DHT22;3089;48.202;11.510;2023-07-13T06:59:59;20.80;99.90
6118;DHT22;3089;48.202;11.510;2023-07-13T07:02:27;20.90;99.90
6118;DHT22;3089;48.202;11.510;2023-07-13T07:04:56;20.80;99.90
6118;DHT22;3089;48.202;11.510;2023-07-13T07:07:24;21.00;99.90
6118;DHT22;3089;48.202;11.510;2023-07-13T07:09:52;20.90;99.90
6118;DHT22;3089;48.202;11.510;2023-07-13T07:12:20;20.50;99.90
6118;DHT22;3089;48.202;11.510;2023-07-13T07:14:48;21.00;99.90
6118;DHT22;3089;48.202;11.510;2023-07-13T07:17:16;21.00;99.90
6118;DHT22;3089;48.202;11.510;2023-07-13T07:19:43;20.90;99.90
6118;DHT22;3089;48.202;11.510;2023-07-13T07:22:13;20.60;99.90
6118;DHT22;3089;48.202;11.510;2023-07-13T07:24:41;20.70;99.90
6118;DHT22;3089;48.202;11.510;2023-07-13T07:27:09;20.80;99.90
6118;DHT22;3089;48.202;11.510;2023-07-13T07:29:40;20.80;99.90
6118;DHT22;3089;48.202;11.510;2023-07-13T07:32:13;20.80;99.90
6118;DHT22;3089;48.202;11.510;2023-07-13T07:35:01;20.70;99.90
6118;DHT22;3089;48.202;11.510;2023-07-13T07:37:30;20.80;99.90
6118;DHT22;3089;48.202;11.510;2023-07-13T07:40:00;20.90;99.90
6118;DHT22;3089;48.202;11.510;2023-07-13T07:42:32;21.00;99.90
6118;DHT22;3089;48.202;11.510;2023-07-13T07:45:00;20.90;99.90
6118;DHT22;3089;48.202;11.510;2023-07-13T07:47:28;20.90;99.90
6118;DHT22;3089;48.202;11.510;2023-07-13T07:49:56;21.00;99.90
6118;DHT22;3089;48.202;11.510;2023-07-13T07:52:24;21.00;99.90
6118;DHT22;3089;48.202;11.510;2023-07-13T07:54:53;21.00;99.90
6118;DHT22;3089;48.202;11.510;2023-07-13T07:57:24;21.10;99.90
6118;DHT22;3089;48.202;11.510;2023-07-13T07:59:54;21.00;99.90
6118;DHT22;3089;48.202;11.510;2023-07-13T08:02:25;20.90;99.90
6118;DHT22;3089;48.202;11.510;2023-07-13T08:04:56;20.80;99.90
6118;DHT22;3089;48.202;11.510;2023-07-13T08:07:27;20.70;99.90
6118;DHT22;3089;48.202;11.510;2023-07-13T08:09:56;20.70;99.90
6118;DHT22;3089;48.202;11.510;2023-07-13T08:12:24;20.60;99.90
6118;DHT22;3089;48.202;11.510;2023-07-13T08:14:54;20.60;99.90
6118;DHT22;3089;48.202;11.510;2023-07-13T08:17:24;20.60;99.90
6118;DHT22;3089;48.202;11.510;2023-07-13T08:19:53;20.50;99.90
6118;DHT22;3089;48.202;11.510;2023-07-13T08:22:21;20.70;99.90
6118;DHT22;3089;48.202;11.510;2023-07-13T08:24:49;20.70;99.90
6118;DHT22;3089;48.202;11.510;2023-07-13T08:27:25;20.60;99.90
6118;DHT22;3089;48.202;11.510;2023-07-13T08:29:53;20.60;99.90
6118;DHT22;3089;48.202;11.510;2023-07-13T08:32:22;20.50;99.90
6118;DHT22;3089;48.202;11.510;2023-07-13T08:34:51;20.60;99.90
6118;DHT22;3089;48.202;11.510;2023-07-13T08:37:19;20.60;99.90
6118;DHT22;3089;48.202;11.510;2023-07-13T08:39:47;20.80;99.90
6118;DHT22;3089;48.202;11.510;2023-07-13T08:42:27;20.90;99.90
6118;DHT22;3089;48.202;11.510;2023-07-13T08:45:05;20.70;99.90
6118;DHT22;3089;48.202;11.510;2023-07-13T08:47:39;20.90;99.90
6118;DHT22;3089;48.202;11.510;2023-07-13T08:50:12;20.90;99.90
6118;DHT22;3089;48.202;11.510;2023-07-13T08:52:43;20.90;99.90
6118;DHT22;3089;48.202;11.510;2023-07-13T08:55:13;21.00;99.90
6118;DHT22;3089;48.202;11.510;2023-07-13T08:57:46;20.90;99.90
6118;DHT22;3089;48.202;11.510;2023-07-13T09:00:15;20.90;99.90
6118;DHT22;3089;48.202;11.510;2023-07-13T09:02:46;20.80;99.90
6118;DHT22;3089;48.202;11.510;2023-07-13T09:05:20;20.60;99.90
6118;DHT22;3089;48.202;11.510;2023-07-13T09:08:02;20.50;99.90
6118;DHT22;3089;48.202;11.510;2023-07-13T09:10:41;20.70;99.90
6118;DHT22;3089;48.202;11.510;2023-07-13T09:13:22;20.70;99.90
6118;DHT22;3089;48.202;11.510;2023-07-13T09:15:52;20.70;99.90
6118;DHT22;3089;48.202;11.510;2023-07-13T09:18:26;20.90;99.90
6118;DHT22;3089;48.202;11.510;2023-07-13T09:21:00;20.90;99.90
6118;DHT22;3089;48.202;11.510;2023-07-13T09:23:30;20.90;99.90
6118;DHT22;3089;48.202;11.510;2023-07-13T09:26:02;21.00;99.90
6118;DHT22;3089;48.202;11.510;2023-07-13T09:28:38;21.00;99.90
6118;DHT22;3089;48.202;11.510;2023-07-13T09:31:10;20.90;99.90
6118;DHT22;3089;48.202;11.510;2023-07-13T09:33:40;21.10;99.90
6118;DHT22;3089;48.202;11.510;2023-07-13T09:36:18;21.10;99.90
6118;DHT22;3089;48.202;11.510;2023-07-13T09:38:48;21.00;99.90
6118;DHT22;3089;48.202;11.510;2023-07-13T09:41:21;21.10;99.90
6118;DHT22;3089;48.202;11.510;2023-07-13T09:44:06;21.20;99.90
6118;DHT22;3089;48.202;11.510;2023-07-13T09:46:36;21.10;99.90
6118;DHT22;3089;48.202;11.510;2023-07-13T09:49:03;21.20;99.90
6118;DHT22;3089;48.202;11.510;2023-07-13T09:51:31;21.30;99.90
6118;DHT22;3089;48.202;11.510;2023-07-13T09:53:59;21.40;99.90
6118;DHT22;3089;48.202;11.510;2023-07-13T09:56:29;21.50;99.90
6118;DHT22;3089;48.202;11.510;2023-07-13T09:58:58;21.60;99.90
6118;DHT22;3089;48.202;11.510;2023-07-13T10:01:36;21.30;99.90
6118;DHT22;3089;48.202;11.510;2023-07-13T10:04:11;21.60;99.90
6118;DHT22;3089;48.202;11.510;2023-07-13T10:06:40;21.50;99.90
6118;DHT22;3089;48.202;11.510;2023-07-13T10:09:09;21.50;99.90
6118;DHT22;3089;48.202;11.510;2023-07-13T10:11:40;21.50;99.90
6118;DHT22;3089;48.202;11.510;2023-07-13T10:14:12;21.80;99.90
6118;DHT22;3089;48.202;11.510;2023-07-13T10:16:44;22.00;99.90
6118;DHT22;3089;48.202;11.510;2023-07-13T10:19:15;22.20;99.90
6118;DHT22;3089;48.202;11.510;2023-07-13T10:21:52;22.40;99.90
6118;DHT22;3089;48.202;11.510;2023-07-13T10:24:23;22.10;99.90
6118;DHT22;3089;48.202;11.510;2023-07-13T10:26:55;22.30;99.90
6118;DHT22;3089;48.202;11.510;2023-07-13T10:29:26;21.90;99.90
6118;DHT22;3089;48.202;11.510;2023-07-13T10:31:55;21.90;99.90
6118;DHT22;3089;48.202;11.510;2023-07-13T10:34:25;21.90;99.90
6118;DHT22;3089;48.202;11.510;2023-07-13T10:36:53;22.30;99.90
6118;DHT22;3089;48.202;11.510;2023-07-13T10:39:24;21.90;99.90
6118;DHT22;3089;48.202;11.510;2023-07-13T10:41:57;22.60;99.90
6118;DHT22;3089;48.202;11.510;2023-07-13T10:44:28;23.30;99.90
6118;DHT22;3089;48.202;11.510;2023-07-13T10:47:00;23.20;99.90
6118;DHT22;3089;48.202;11.510;2023-07-13T10:49:30;23.50;99.90
6118;DHT22;3089;48.202;11.510;2023-07-13T10:51:59;23.60;99.90
6118;DHT22;3089;48.202;11.510;2023-07-13T10:54:30;23.40;99.90
6118;DHT22;3089;48.202;11.510;2023-07-13T10:57:15;23.20;99.90
6118;DHT22;3089;48.202;11.510;2023-07-13T10:59:46;23.50;99.90
6118;DHT22;3089;48.202;11.510;2023-07-13T11:02:23;23.10;99.90
6118;DHT22;3089;48.202;11.510;2023-07-13T11:04:54;23.30;99.90
6118;DHT22;3089;48.202;11.510;2023-07-13T11:07:24;23.50;99.90
6118;DHT22;3089;48.202;11.510;2023-07-13T11:09:55;23.50;99.90
6118;DHT22;3089;48.202;11.510;2023-07-13T11:15:32;23.80;99.90
6118;DHT22;3089;48.202;11.510;2023-07-13T11:18:21;23.80;99.90
6118;DHT22;3089;48.202;11.510;2023-07-13T11:20:49;23.80;99.90
6118;DHT22;3089;48.202;11.510;2023-07-13T11:23:28;23.80;99.90
6118;DHT22;3089;48.202;11.510;2023-07-13T11:25:56;23.50;99.90
6118;DHT22;3089;48.202;11.510;2023-07-13T11:28:29;23.60;99.90
6118;DHT22;3089;48.202;11.510;2023-07-13T11:31:13;23.50;99.90
6118;DHT22;3089;48.202;11.510;2023-07-13T11:33:52;23.50;99.90
6118;DHT22;3089;48.202;11.510;2023-07-13T11:36:21;23.70;99.90
6118;DHT22;3089;48.202;11.510;2023-07-13T11:38:58;23.60;99.90
6118;DHT22;3089;48.202;11.510;2023-07-13T11:41:29;23.60;99.90
6118;DHT22;3089;48.202;11.510;2023-07-13T11:44:06;23.50;99.90
6118;DHT22;3089;48.202;11.510;2023-07-13T11:46:34;23.90;99.90
6118;DHT22;3089;48.202;11.510;2023-07-13T11:49:06;23.90;99.90
6118;DHT22;3089;48.202;11.510;2023-07-13T11:51:35;24.20;99.90
6118;DHT22;3089;48.202;11.510;2023-07-13T11:54:05;24.40;99.90
6118;DHT22;3089;48.202;11.510;2023-07-13T11:56:34;24.60;99.90
6118;DHT22;3089;48.202;11.510;2023-07-13T11:59:06;24.30;99.90
6118;DHT22;3089;48.202;11.510;2023-07-13T12:01:36;23.80;99.90
6118;DHT22;3089;48.202;11.510;2023-07-13T12:04:20;24.30;99.90
6118;DHT22;3089;48.202;11.510;2023-07-13T12:06:55;24.50;99.90
6118;DHT22;3089;48.202;11.510;2023-07-13T12:09:25;24.80;99.90
6118;DHT22;3089;48.202;11.510;2023-07-13T12:11:53;24.50;99.90
6118;DHT22;3089;48.202;11.510;2023-07-13T12:14:21;24.40;99.90
6118;DHT22;3089;48.202;11.510;2023-07-13T12:16:51;24.30;99.90
6118;DHT22;3089;48.202;11.510;2023-07-13T12:19:23;24.40;99.90
6118;DHT22;3089;48.202;11.510;2023-07-13T12:21:54;23.80;99.90
6118;DHT22;3089;48.202;11.510;2023-07-13T12:24:23;24.30;99.90
6118;DHT22;3089;48.202;11.510;2023-07-13T12:26:53;24.30;99.90
6118;DHT22;3089;48.202;11.510;2023-07-13T12:29:21;23.50;99.90
6118;DHT22;3089;48.202;11.510;2023-07-13T12:31:50;24.10;99.90
6118;DHT22;3089;48.202;11.510;2023-07-13T12:34:21;24.50;99.90
6118;DHT22;3089;48.202;11.510;2023-07-13T12:36:51;24.20;99.90
6118;DHT22;3089;48.202;11.510;2023-07-13T12:39:22;24.50;99.90
6118;DHT22;3089;48.202;11.510;2023-07-13T12:41:52;24.30;99.90
6118;DHT22;3089;48.202;11.510;2023-07-13T12:44:25;23.90;99.90
6118;DHT22;3089;48.202;11.510;2023-07-13T12:46:57;23.90;99.90
6118;DHT22;3089;48.202;11.510;2023-07-13T12:49:31;24.30;99.90
6118;DHT22;3089;48.202;11.510;2023-07-13T12:52:03;24.70;99.90
6118;DHT22;3089;48.202;11.510;2023-07-13T12:54:32;25.00;99.90
6118;DHT22;3089;48.202;11.510;2023-07-13T12:57:00;24.70;99.90
6118;DHT22;3089;48.202;11.510;2023-07-13T12:59:32;24.30;99.90
6118;DHT22;3089;48.202;11.510;2023-07-13T13:02:21;24.70;99.90
6118;DHT22;3089;48.202;11.510;2023-07-13T13:04:51;24.90;99.90
6118;DHT22;3089;48.202;11.510;2023-07-13T13:07:21;24.90;99.90
6118;DHT22;3089;48.202;11.510;2023-07-13T13:09:49;23.70;99.90
6118;DHT22;3089;48.202;11.510;2023-07-13T13:12:17;23.60;99.90
6118;DHT22;3089;48.202;11.510;2023-07-13T13:14:45;23.90;99.90
6118;DHT22;3089;48.202;11.510;2023-07-13T13:17:18;23.80;99.90
6118;DHT22;3089;48.202;11.510;2023-07-13T13:19:47;24.50;99.90
6118;DHT22;3089;48.202;11.510;2023-07-13T13:22:17;24.90;99.90
6118;DHT22;3089;48.202;11.510;2023-07-13T13:24:45;25.00;99.90
6118;DHT22;3089;48.202;11.510;2023-07-13T13:27:15;24.70;99.90
6118;DHT22;3089;48.202;11.510;2023-07-13T13:29:45;25.00;99.90
6118;DHT22;3089;48.202;11.510;2023-07-13T13:32:14;24.50;99.90
6118;DHT22;3089;48.202;11.510;2023-07-13T13:34:42;24.70;99.90
6118;DHT22;3089;48.202;11.510;2023-07-13T13:37:19;24.60;99.90
6118;DHT22;3089;48.202;11.510;2023-07-13T13:39:48;24.70;99.90
6118;DHT22;3089;48.202;11.510;2023-07-13T13:42:34;24.40;99.90
6118;DHT22;3089;48.202;11.510;2023-07-13T13:45:02;24.20;99.90
6118;DHT22;3089;48.202;11.510;2023-07-13T13:47:31;24.30;99.90
6118;DHT22;3089;48.202;11.510;2023-07-13T13:50:01;24.00;99.90
6118;DHT22;3089;48.202;11.510;2023-07-13T13:52:31;24.40;99.90
6118;DHT22;3089;48.202;11.510;2023-07-13T13:54:59;24.30;99.90
6118;DHT22;3089;48.202;11.510;2023-07-13T13:57:27;24.50;99.90
6118;DHT22;3089;48.202;11.510;2023-07-13T13:59:55;24.70;99.90
6118;DHT22;3089;48.202;11.510;2023-07-13T14:02:25;24.90;99.90
6118;DHT22;3089;48.202;11.510;2023-07-13T14:04:56;24.80;99.90
6118;DHT22;3089;48.202;11.510;2023-07-13T14:07:24;24.80;99.90
6118;DHT22;3089;48.202;11.510;2023-07-13T14:09:58;25.00;99.90
6118;DHT22;3089;48.202;11.510;2023-07-13T14:12:27;24.40;99.90
6118;DHT22;3089;48.202;11.510;2023-07-13T14:14:56;24.70;99.90
6118;DHT22;3089;48.202;11.510;2023-07-13T14:17:26;24.50;99.90
6118;DHT22;3089;48.202;11.510;2023-07-13T14:19:54;24.90;99.90
6118;DHT22;3089;48.202;11.510;2023-07-13T14:22:24;25.10;99.90
6118;DHT22;3089;48.202;11.510;2023-07-13T14:24:54;24.60;99.90
6118;DHT22;3089;48.202;11.510;2023-07-13T14:27:24;25.00;99.90
6118;DHT22;3089;48.202;11.510;2023-07-13T14:29:52;25.00;99.90
6118;DHT22;3089;48.202;11.510;2023-07-13T14:32:20;25.00;99.90
6118;DHT22;3089;48.202;11.510;2023-07-13T14:34:48;25.00;99.90
6118;DHT22;3089;48.202;11.510;2023-07-13T14:37:16;24.90;99.90
6118;DHT22;3089;48.202;11.510;2023-07-13T14:39:44;24.80;99.90
6118;DHT22;3089;48.202;11.510;2023-07-13T14:42:16;24.80;99.90
6118;DHT22;3089;48.202;11.510;2023-07-13T14:44:44;24.80;99.90
6118;DHT22;3089;48.202;11.510;2023-07-13T14:47:12;24.70;99.90
6118;DHT22;3089;48.202;11.510;2023-07-13T14:49:42;24.60;99.90
6118;DHT22;3089;48.202;11.510;2023-07-13T14:52:13;24.20;99.90
6118;DHT22;3089;48.202;11.510;2023-07-13T14:54:42;24.20;99.90
6118;DHT22;3089;48.202;11.510;2023-07-13T14:57:11;24.40;99.90
6118;DHT22;3089;48.202;11.510;2023-07-13T14:59:41;24.40;99.90
6118;DHT22;3089;48.202;11.510;2023-07-13T15:02:26;24.10;99.90
6118;DHT22;3089;48.202;11.510;2023-07-13T15:04:56;24.30;99.90
6118;DHT22;3089;48.202;11.510;2023-07-13T15:07:25;24.30;99.90
6118;DHT22;3089;48.202;11.510;2023-07-13T15:09:53;24.30;99.90
6118;DHT22;3089;48.202;11.510;2023-07-13T15:12:21;24.10;99.90
6118;DHT22;3089;48.202;11.510;2023-07-13T15:14:50;24.30;99.90
6118;DHT22;3089;48.202;11.510;2023-07-13T15:17:26;24.10;99.90
6118;DHT22;3089;48.202;11.510;2023-07-13T15:19:55;24.30;99.90
6118;DHT22;3089;48.202;11.510;2023-07-13T15:22:23;24.30;99.90
6118;DHT22;3089;48.202;11.510;2023-07-13T15:24:51;24.30;99.90
6118;DHT22;3089;48.202;11.510;2023-07-13T15:27:19;24.20;99.90
6118;DHT22;3089;48.202;11.510;2023-07-13T15:29:47;24.10;99.90
6118;DHT22;3089;48.202;11.510;2023-07-13T15:32:16;24.20;99.90
6118;DHT22;3089;48.202;11.510;2023-07-13T15:34:46;24.20;99.90
6118;DHT22;3089;48.202;11.510;2023-07-13T15:37:14;24.20;99.90
6118;DHT22;3089;48.202;11.510;2023-07-13T15:39:42;24.20;99.90
6118;DHT22;3089;48.202;11.510;2023-07-13T15:42:14;24.20;99.90
6118;DHT22;3089;48.202;11.510;2023-07-13T15:44:42;24.20;99.90
6118;DHT22;3089;48.202;11.510;2023-07-13T15:47:11;24.10;99.90
6118;DHT22;3089;48.202;11.510;2023-07-13T15:49:42;24.20;99.90
6118;DHT22;3089;48.202;11.510;2023-07-13T15:52:16;24.20;99.90
6118;DHT22;3089;48.202;11.510;2023-07-13T15:54:45;24.10;99.90
6118;DHT22;3089;48.202;11.510;2023-07-13T15:57:14;24.10;99.90
6118;DHT22;3089;48.202;11.510;2023-07-13T15:59:42;24.00;99.90
6118;DHT22;3089;48.202;11.510;2023-07-13T16:02:16;24.20;99.90
6118;DHT22;3089;48.202;11.510;2023-07-13T16:04:46;24.20;99.90